SHGE weather

Public forecast

Using degrees Celsius for public forecast. Weather courtesy of forecast.io.

Closest aviation weather report (METAR) to Gertrudis Echeñique Heliport

Report is more than 2 hours old.

Closest report is Eulogio Sánchez Airport, 3.3 nm (6.2 km) SE. Retrieved 2020/08/11 22:00 UTC (3 hours ago):

SCTB 112200Z 20004KT CAVOK 14/04 Q1015

Closest aviation forecast (TAF) to Gertrudis Echeñique Heliport

Closest forecast is Comodoro Arturo Merino Benítez International Airport, 9.9 nm (18.3 km) W. Retrieved 2020-08-12 00:00 UTC (1 hour ago):

TAF SCEL 112241Z 1200/1224 19005KT CAVOK TX15/1218Z TN01/1210Z BECMG 1201/1203 16004KT BECMG 1206/1208 VRB02KT 7000 NSC TEMPO 1209/1212 5000 BR BECMG 1214/1216 17005KT CAVOK BECMG 1216/1218 19010KT